Time;durP1;ratioP1;P1;durP2;ratioP2;P2;SDS_P1;SDS_P2;PMS_P1;PMS_P2;Temp;Humidity;BMP_temperature;BMP_pressure;BME280_temperature;BME280_humidity;BME280_pressure;Samples;Min_cycle;Max_cycle;Signal;HPM_P1;HPM_P2
2023/05/28 00:01:36;;;;;;;5.90;5.30;;;;;;;13.87;100.00;100786.40;105670;1254;72481;-42
2023/05/28 00:04:04;;;;;;;11.80;4.90;;;;;;;13.83;100.00;100785.46;105731;1257;64000;-42
2023/05/28 00:06:32;;;;;;;14.70;5.30;;;;;;;13.81;100.00;100786.05;105650;1257;71555;-43
2023/05/28 00:08:59;;;;;;;9.00;5.80;;;;;;;13.80;100.00;100782.41;105527;1254;60534;-42
2023/05/28 00:11:27;;;;;;;8.10;5.10;;;;;;;13.77;100.00;100779.38;105584;1257;60340;-44
2023/05/28 00:13:54;;;;;;;10.40;5.40;;;;;;;13.79;100.00;100774.45;105706;1253;72691;-43
2023/05/28 00:16:22;;;;;;;10.70;5.60;;;;;;;13.78;100.00;100777.45;105651;1254;63788;-41
2023/05/28 00:18:50;;;;;;;6.30;5.30;;;;;;;13.74;100.00;100774.39;105644;1253;71440;-41
2023/05/28 00:21:17;;;;;;;12.50;6.20;;;;;;;13.74;100.00;100773.20;105670;1255;60528;-41
2023/05/28 00:23:45;;;;;;;9.80;5.90;;;;;;;13.73;100.00;100771.83;105672;1253;60531;-41
2023/05/28 00:26:13;;;;;;;8.40;6.10;;;;;;;13.74;100.00;100774.76;105688;1253;73662;-42
2023/05/28 00:28:42;;;;;;;13.30;6.20;;;;;;;13.76;100.00;100776.29;105644;1257;63914;-41
2023/05/28 00:31:11;;;;;;;7.40;4.90;;;;;;;13.75;100.00;100769.71;105663;1254;71480;-41
2023/05/28 00:33:38;;;;;;;12.40;7.20;;;;;;;13.72;100.00;100768.93;105725;1254;60630;-42
2023/05/28 00:36:07;;;;;;;6.70;5.80;;;;;;;13.68;100.00;100770.59;105655;1253;60478;-42
2023/05/28 00:38:34;;;;;;;8.20;6.80;;;;;;;13.66;100.00;100773.42;105662;1253;72528;-42
2023/05/28 00:41:02;;;;;;;9.10;6.40;;;;;;;13.64;100.00;100771.73;105656;1254;64233;-42
2023/05/28 00:43:30;;;;;;;7.70;6.20;;;;;;;13.63;100.00;100765.36;105723;1254;71403;-42
2023/05/28 00:46:01;;;;;;;9.90;6.80;;;;;;;13.62;100.00;100762.24;105622;1253;61650;-42
2023/05/28 00:48:29;;;;;;;7.70;6.40;;;;;;;13.64;100.00;100758.04;105713;1257;60442;-42
2023/05/28 00:51:00;;;;;;;7.70;6.10;;;;;;;13.63;100.00;100756.51;105728;1253;72586;-42
2023/05/28 00:53:27;;;;;;;6.10;5.50;;;;;;;13.61;100.00;100752.39;105654;1258;64379;-42
2023/05/28 00:55:55;;;;;;;9.20;6.30;;;;;;;13.57;100.00;100752.49;105696;1254;71691;-42
2023/05/28 00:58:23;;;;;;;7.40;5.80;;;;;;;13.57;100.00;100751.80;105655;1260;60441;-41
2023/05/28 01:00:50;;;;;;;6.80;6.20;;;;;;;13.57;100.00;100746.60;105679;1254;60431;-42
2023/05/28 01:03:18;;;;;;;9.40;6.70;;;;;;;13.56;100.00;100749.73;105651;1253;72650;-42
2023/05/28 01:05:47;;;;;;;10.90;6.20;;;;;;;13.55;100.00;100749.95;105697;1254;65337;-42
2023/05/28 01:08:15;;;;;;;7.60;6.20;;;;;;;13.53;100.00;100746.54;105691;1258;71352;-42
2023/05/28 01:10:43;;;;;;;9.50;6.20;;;;;;;13.51;100.00;100746.73;105671;1254;61860;-42
2023/05/28 01:13:11;;;;;;;8.40;6.70;;;;;;;13.49;100.00;100749.05;105715;1253;60503;-43
2023/05/28 01:15:40;;;;;;;7.50;6.70;;;;;;;13.49;100.00;100752.52;105672;1253;72926;-42
2023/05/28 01:18:08;;;;;;;12.00;6.40;;;;;;;13.48;100.00;100753.91;105715;1257;63955;-42
2023/05/28 01:20:36;;;;;;;9.10;6.40;;;;;;;13.48;100.00;100750.81;105681;1258;72625;-42
2023/05/28 01:23:09;;;;;;;6.90;6.20;;;;;;;13.48;100.00;100748.73;105711;1254;61694;-42
2023/05/28 01:25:40;;;;;;;10.40;7.20;;;;;;;13.48;100.00;100753.39;105663;1254;60351;-42
2023/05/28 01:28:12;;;;;;;10.80;7.40;;;;;;;13.48;100.00;100747.87;105656;1253;73793;-42
2023/05/28 01:30:43;;;;;;;8.80;7.50;;;;;;;13.47;100.00;100744.42;105721;1254;64070;-41
2023/05/28 01:33:11;;;;;;;11.60;7.50;;;;;;;13.46;100.00;100745.99;105718;1255;72776;-41
2023/05/28 01:35:39;;;;;;;7.70;7.00;;;;;;;13.46;100.00;100748.08;105555;1261;60456;-43
2023/05/28 01:38:09;;;;;;;7.70;7.00;;;;;;;13.47;100.00;100748.75;105694;1253;60506;-43
2023/05/28 01:40:38;;;;;;;12.20;6.70;;;;;;;13.50;100.00;100748.16;105696;1253;73830;-43
2023/05/28 01:43:07;;;;;;;13.60;6.30;;;;;;;13.52;100.00;100745.17;105756;1253;64317;-42
2023/05/28 01:45:34;;;;;;;16.30;6.80;;;;;;;13.51;100.00;100747.63;105779;1254;70649;-42
2023/05/28 01:48:02;;;;;;;9.80;6.80;;;;;;;13.50;100.00;100752.14;105666;1253;60870;-42
2023/05/28 01:50:32;;;;;;;11.50;6.60;;;;;;;13.49;100.00;100755.98;105639;1253;60530;-42
2023/05/28 01:53:00;;;;;;;12.10;6.40;;;;;;;13.46;100.00;100755.01;105598;1254;72593;-42
2023/05/28 01:55:28;;;;;;;10.00;6.70;;;;;;;13.44;100.00;100755.77;105709;1254;63035;-42
2023/05/28 01:57:56;;;;;;;10.80;6.30;;;;;;;13.44;100.00;100760.97;105645;1260;72641;-42
2023/05/28 02:00:24;;;;;;;14.20;6.50;;;;;;;13.45;100.00;100761.64;105685;1259;60428;-43
2023/05/28 02:02:53;;;;;;;16.60;7.30;;;;;;;13.44;100.00;100765.64;105713;1253;60466;-42
2023/05/28 02:05:21;;;;;;;11.60;7.00;;;;;;;13.44;100.00;100768.09;105694;1253;72610;-43
2023/05/28 02:07:49;;;;;;;12.60;6.60;;;;;;;13.44;100.00;100767.02;105706;1254;64021;-43
2023/05/28 02:10:17;;;;;;;12.20;7.00;;;;;;;13.45;100.00;100768.92;105641;1257;71445;-44
2023/05/28 02:12:45;;;;;;;9.40;6.60;;;;;;;13.46;100.00;100767.15;105538;1259;60483;-44
2023/05/28 02:15:13;;;;;;;13.20;6.80;;;;;;;13.49;100.00;100765.85;105505;1253;60342;-43
2023/05/28 02:17:43;;;;;;;11.40;6.50;;;;;;;13.53;100.00;100767.54;105694;1253;72877;-50
2023/05/28 02:20:11;;;;;;;10.50;6.30;;;;;;;13.55;100.00;100770.42;105703;1253;65680;-43
2023/05/28 02:22:41;;;;;;;10.20;6.70;;;;;;;13.57;100.00;100767.58;105684;1254;71695;-41
2023/05/28 02:25:09;;;;;;;13.00;6.20;;;;;;;13.61;100.00;100767.98;105677;1253;61687;-40
2023/05/28 02:27:38;;;;;;;9.80;6.00;;;;;;;13.65;100.00;100766.85;105696;1253;60337;-42
2023/05/28 02:30:07;;;;;;;11.50;5.80;;;;;;;13.69;100.00;100767.78;105681;1257;72622;-42
2023/05/28 02:32:34;;;;;;;8.20;6.30;;;;;;;13.73;100.00;100771.52;105725;1257;65160;-42
2023/05/28 02:35:02;;;;;;;6.90;6.20;;;;;;;13.76;100.00;100774.36;105662;1259;71396;-42
2023/05/28 02:37:30;;;;;;;8.10;6.20;;;;;;;13.82;100.00;100779.07;105639;1256;61611;-42
2023/05/28 02:39:58;;;;;;;9.00;6.50;;;;;;;13.87;100.00;100786.22;105748;1258;60432;-42
2023/05/28 02:42:25;;;;;;;6.80;6.10;;;;;;;13.92;100.00;100790.41;105627;1260;73811;-42
2023/05/28 02:44:53;;;;;;;9.50;6.60;;;;;;;13.98;100.00;100791.47;105609;1255;65715;-42
2023/05/28 02:47:21;;;;;;;7.00;6.10;;;;;;;14.05;100.00;100793.20;105368;1258;72789;-42
2023/05/28 02:49:50;;;;;;;9.50;6.30;;;;;;;14.12;100.00;100798.05;105656;1255;60456;-43
2023/05/28 02:52:18;;;;;;;9.70;6.90;;;;;;;14.19;100.00;100801.14;105685;1255;60598;-43
2023/05/28 02:54:47;;;;;;;11.30;5.50;;;;;;;14.27;100.00;100809.59;105694;1253;73837;-42
2023/05/28 02:57:14;;;;;;;7.80;5.60;;;;;;;14.33;100.00;100815.49;105663;1260;64171;-43
2023/05/28 02:59:42;;;;;;;15.50;6.40;;;;;;;14.38;100.00;100827.86;105708;1254;72722;-43
2023/05/28 03:02:10;;;;;;;8.20;6.80;;;;;;;14.43;100.00;100834.84;105660;1260;60575;-43
2023/05/28 03:04:37;;;;;;;7.00;5.50;;;;;;;14.48;100.00;100839.72;105645;1253;60533;-43
2023/05/28 03:07:06;;;;;;;8.20;6.30;;;;;;;14.52;100.00;100849.86;105645;1253;73941;-43
2023/05/28 03:09:36;;;;;;;9.60;6.10;;;;;;;14.55;100.00;100859.17;105681;1259;64048;-43
2023/05/28 03:12:04;;;;;;;11.50;6.30;;;;;;;14.57;100.00;100871.61;105677;1253;72622;-43
2023/05/28 03:14:32;;;;;;;7.40;6.20;;;;;;;14.59;100.00;100883.89;105686;1254;61671;-43
2023/05/28 03:17:00;;;;;;;9.50;5.90;;;;;;;14.60;100.00;100896.70;105648;1258;60335;-43
2023/05/28 03:19:28;;;;;;;11.90;6.40;;;;;;;14.63;100.00;100911.54;105593;1260;73755;-43
2023/05/28 03:21:56;;;;;;;8.00;5.80;;;;;;;14.67;100.00;100921.70;105704;1254;64007;-43
2023/05/28 03:25:54;;;;;;;8.90;6.00;;;;;;;14.76;100.00;100961.95;102812;1290;599995;-41
2023/05/28 03:28:23;;;;;;;8.30;6.10;;;;;;;14.80;100.00;100962.17;105060;1267;60443;-42
2023/05/28 03:31:03;;;;;;;7.90;6.40;;;;;;;14.90;100.00;100973.19;104810;1267;59344;-42
2023/05/28 03:33:31;;;;;;;13.00;6.40;;;;;;;15.01;100.00;100984.89;105285;1265;72239;-42
2023/05/28 03:35:59;;;;;;;13.50;6.60;;;;;;;15.10;100.00;100998.71;105220;1261;64012;-42
2023/05/28 03:38:27;;;;;;;8.00;6.20;;;;;;;15.19;100.00;101010.81;105059;1265;202443;-42
2023/05/28 03:40:56;;;;;;;10.70;5.30;;;;;;;15.27;100.00;101025.18;105517;1258;59305;-43
2023/05/28 03:43:24;;;;;;;11.30;5.80;;;;;;;15.32;100.00;101044.31;105556;1262;60038;-42
2023/05/28 03:45:52;;;;;;;13.00;5.60;;;;;;;15.39;100.00;101061.51;105479;1257;72258;-42
2023/05/28 03:48:20;;;;;;;13.40;5.00;;;;;;;15.45;100.00;101070.90;105475;1262;65170;-43
2023/05/28 03:50:48;;;;;;;6.90;4.50;;;;;;;15.49;100.00;101079.11;105442;1257;72661;-42
2023/05/28 03:53:15;;;;;;;10.00;5.00;;;;;;;15.55;100.00;101076.70;105506;1260;61629;-42
2023/05/28 03:55:43;;;;;;;8.00;4.80;;;;;;;15.64;100.00;101068.44;105541;1262;59625;-42
2023/05/28 03:58:14;;;;;;;7.00;4.30;;;;;;;15.80;100.00;101051.77;105566;1262;71672;-42
2023/05/28 04:00:43;;;;;;;6.50;4.40;;;;;;;15.91;100.00;101025.19;105520;1258;63242;-42
2023/05/28 04:03:11;;;;;;;4.80;4.40;;;;;;;15.95;100.00;100958.23;105554;1257;71020;-43
2023/05/28 04:05:40;;;;;;;7.80;4.90;;;;;;;16.03;100.00;100868.68;105582;1257;60105;-43
2023/05/28 04:08:08;;;;;;;8.60;4.30;;;;;;;16.18;100.00;100802.52;105559;1261;59609;-43
2023/05/28 04:10:36;;;;;;;7.40;4.00;;;;;;;16.44;100.00;100758.75;105533;1257;73051;-43
2023/05/28 04:13:03;;;;;;;5.00;4.30;;;;;;;16.74;100.00;100718.19;105263;1264;65131;-43
2023/05/28 04:15:31;;;;;;;11.40;4.00;;;;;;;17.04;100.00;100646.42;105443;1257;72642;-43
2023/05/28 04:17:59;;;;;;;6.50;4.00;;;;;;;17.23;100.00;100502.60;105285;1260;59695;-43
2023/05/28 04:20:26;;;;;;;6.10;4.30;;;;;;;17.48;100.00;100438.38;105472;1259;59545;-43
2023/05/28 04:22:54;;;;;;;8.70;3.50;;;;;;;17.62;100.00;100381.86;105562;1256;72974;-43
2023/05/28 04:25:24;;;;;;;7.80;4.00;;;;;;;17.64;100.00;100346.88;105550;1258;65374;-43
2023/05/28 04:27:52;;;;;;;8.30;4.30;;;;;;;17.64;100.00;100341.44;105431;1263;72593;-43
2023/05/28 04:30:22;;;;;;;7.60;4.10;;;;;;;17.64;100.00;100353.85;105537;1257;60663;-45
2023/05/28 04:32:51;;;;;;;7.10;3.20;;;;;;;17.62;100.00;100364.42;105297;1257;60085;-43
2023/05/28 04:35:19;;;;;;;9.70;3.80;;;;;;;17.63;100.00;100375.70;105306;1264;73166;-45
2023/05/28 04:37:48;;;;;;;23.60;3.80;;;;;;;17.65;100.00;100384.52;105279;1258;63714;-43
2023/05/28 04:40:15;;;;;;;6.80;3.70;;;;;;;17.66;100.00;100400.48;105143;1261;71404;-44
2023/05/28 04:42:43;;;;;;;17.10;4.30;;;;;;;17.73;100.00;100410.63;105526;1257;60644;-42
2023/05/28 04:45:11;;;;;;;4.40;3.20;;;;;;;17.83;100.00;100424.83;105418;1257;59548;-41
2023/05/28 04:47:41;;;;;;;15.60;3.70;;;;;;;17.85;100.00;100448.30;105556;1262;72117;-42
2023/05/28 04:50:09;;;;;;;8.30;3.50;;;;;;;17.77;100.00;100475.17;105542;1257;65188;-42
2023/05/28 04:52:37;;;;;;;16.80;3.70;;;;;;;17.63;100.00;100496.08;105288;1260;71628;-43
2023/05/28 04:55:06;;;;;;;7.50;4.20;;;;;;;17.38;100.00;100512.23;105491;1257;60221;-42
2023/05/28 04:57:33;;;;;;;12.30;4.30;;;;;;;17.09;100.00;100515.27;105537;1258;60966;-42
2023/05/28 05:00:03;;;;;;;13.30;3.60;;;;;;;16.91;100.00;100504.02;105646;1254;73068;-43
2023/05/28 05:02:31;;;;;;;4.50;3.50;;;;;;;16.80;100.00;100496.84;105606;1254;64023;-42
2023/05/28 05:04:59;;;;;;;7.20;3.60;;;;;;;16.73;100.00;100496.11;105623;1261;71400;-42
2023/05/28 05:07:28;;;;;;;12.30;4.20;;;;;;;16.67;100.00;100491.13;105652;1257;61663;-43
2023/05/28 05:09:56;;;;;;;9.10;3.60;;;;;;;16.67;100.00;100474.23;105633;1254;60026;-42
2023/05/28 05:12:23;;;;;;;7.80;4.60;;;;;;;16.52;100.00;100467.73;105576;1261;72986;-42
2023/05/28 05:14:51;;;;;;;12.50;4.10;;;;;;;16.28;100.00;100457.41;105662;1254;64306;-42
2023/05/28 05:17:19;;;;;;;7.90;3.80;;;;;;;16.04;100.00;100450.59;105610;1257;71428;-42
2023/05/28 05:19:47;;;;;;;6.30;3.70;;;;;;;15.94;100.00;100449.93;105563;1257;59666;-42
2023/05/28 05:22:15;;;;;;;7.00;4.90;;;;;;;15.94;100.00;100455.85;105632;1254;60007;-43
2023/05/28 05:24:44;;;;;;;11.10;4.60;;;;;;;15.97;100.00;100467.02;105411;1254;73217;-43
2023/05/28 05:27:12;;;;;;;8.10;3.70;;;;;;;16.05;100.00;100483.42;105637;1260;65155;-43
2023/05/28 05:29:39;;;;;;;13.90;3.50;;;;;;;16.15;100.00;100491.90;105522;1257;71517;-44
2023/05/28 05:32:09;;;;;;;9.10;3.70;;;;;;;16.20;100.00;100491.86;105638;1257;59781;-44
2023/05/28 05:34:37;;;;;;;9.40;4.00;;;;;;;16.26;100.00;100482.03;105548;1262;60524;-43
2023/05/28 05:37:43;;;;;;;6.60;3.10;;;;;;;16.34;100.00;100477.37;105464;1263;73025;-42
2023/05/28 05:40:28;;;;;;;6.80;3.80;;;;;;;16.38;100.00;100467.60;105637;1260;64090;-42
2023/05/28 05:43:02;;;;;;;7.90;3.40;;;;;;;16.47;100.00;100462.55;105614;1259;71469;-42
2023/05/28 05:45:30;;;;;;;13.30;4.40;;;;;;;16.54;100.00;100458.25;105575;1254;60045;-43
2023/05/28 05:47:57;;;;;;;7.20;3.70;;;;;;;16.56;100.00;100452.40;105628;1254;59954;-42
2023/05/28 05:50:26;;;;;;;4.60;3.70;;;;;;;16.61;100.00;100450.28;105619;1254;71771;-42
2023/05/28 05:52:54;;;;;;;13.40;4.00;;;;;;;16.69;100.00;100447.13;105550;1262;64010;-43
2023/05/28 05:55:22;;;;;;;7.60;3.60;;;;;;;16.79;100.00;100448.11;105701;1258;72640;-43
2023/05/28 05:57:50;;;;;;;15.40;4.10;;;;;;;16.90;100.00;100445.31;105803;1254;59627;-43
2023/05/28 06:00:18;;;;;;;11.30;4.20;;;;;;;16.99;100.00;100441.50;105689;1258;59718;-43
2023/05/28 06:02:48;;;;;;;11.10;3.90;;;;;;;17.01;100.00;100447.34;105691;1254;73631;-42
2023/05/28 06:05:37;;;;;;;9.50;4.20;;;;;;;16.95;100.00;100444.92;105648;1254;64309;-42
2023/05/28 06:08:30;;;;;;;7.80;3.40;;;;;;;16.96;100.00;100445.75;105807;1259;72614;-42
2023/05/28 06:11:02;;;;;;;6.90;4.00;;;;;;;16.98;100.00;100452.48;105812;1259;61582;-43
2023/05/28 06:13:31;;;;;;;7.90;3.60;;;;;;;17.01;100.00;100454.65;105746;1254;59978;-42
2023/05/28 06:15:59;;;;;;;11.30;4.00;;;;;;;17.01;100.00;100461.27;105796;1253;71883;-42
2023/05/28 06:18:27;;;;;;;9.40;3.20;;;;;;;16.94;100.00;100462.90;105708;1252;65121;-42
2023/05/28 06:20:55;;;;;;;8.70;3.60;;;;;;;16.93;100.00;100461.41;105789;1254;71581;-42
2023/05/28 06:23:23;;;;;;;6.10;3.50;;;;;;;17.03;100.00;100459.59;105732;1255;61616;-42
2023/05/28 06:25:51;;;;;;;8.30;3.50;;;;;;;17.19;100.00;100461.30;105719;1259;59724;-42
2023/05/28 06:28:19;;;;;;;8.70;4.70;;;;;;;17.33;100.00;100458.25;105675;1258;72999;-42
2023/05/28 06:30:46;;;;;;;9.90;3.40;;;;;;;17.57;100.00;100454.67;105634;1253;63939;-42
2023/05/28 06:33:15;;;;;;;9.90;3.60;;;;;;;17.85;100.00;100461.20;105634;1253;73310;-42
2023/05/28 06:35:42;;;;;;;10.10;3.70;;;;;;;18.01;100.00;100483.83;105628;1259;60005;-42
2023/05/28 06:38:11;;;;;;;8.70;3.60;;;;;;;18.08;100.00;100505.85;105679;1253;59592;-42
2023/05/28 06:40:39;;;;;;;8.40;3.50;;;;;;;18.33;100.00;100501.84;105632;1259;71248;-42
2023/05/28 06:43:07;;;;;;;5.30;3.60;;;;;;;18.63;100.00;100520.05;105622;1258;65166;-42
2023/05/28 06:45:52;;;;;;;5.70;3.00;;;;;;;18.99;100.00;100521.92;105647;1256;71484;-43
2023/05/28 06:48:20;;;;;;;5.60;3.30;;;;;;;19.38;100.00;100537.15;105643;1256;60028;-42
2023/05/28 06:50:48;;;;;;;8.90;3.50;;;;;;;19.66;100.00;100571.73;105688;1255;59950;-43
2023/05/28 06:53:17;;;;;;;6.10;3.50;;;;;;;19.80;100.00;100590.04;105736;1254;71833;-43
2023/05/28 06:55:45;;;;;;;8.00;3.20;;;;;;;19.93;100.00;100602.84;105696;1254;65424;-42
2023/05/28 06:58:31;;;;;;;9.90;3.40;;;;;;;19.80;100.00;100614.04;105637;1253;72597;-43
2023/05/28 07:01:03;;;;;;;5.80;3.40;;;;;;;19.96;100.00;100604.78;105623;1254;59716;-43
2023/05/28 07:03:53;;;;;;;10.30;3.40;;;;;;;20.05;100.00;100618.08;105460;1258;59744;-44
2023/05/28 07:06:50;;;;;;;8.00;4.00;;;;;;;20.08;100.00;100619.70;105370;1259;71159;-47
2023/05/28 07:09:27;;;;;;;8.50;3.60;;;;;;;20.15;100.00;100623.04;105669;1259;64155;-44
2023/05/28 07:11:56;;;;;;;7.60;3.40;;;;;;;20.15;100.00;100626.36;105728;1254;72609;-42
2023/05/28 07:14:24;;;;;;;10.00;4.30;;;;;;;20.15;100.00;100623.39;105668;1254;59662;-42
2023/05/28 07:16:51;;;;;;;14.30;3.60;;;;;;;20.21;100.00;100608.98;105662;1253;60024;-42
2023/05/28 07:19:19;;;;;;;6.70;3.30;;;;;;;20.37;100.00;100609.13;105736;1254;72004;-43
2023/05/28 07:21:47;;;;;;;11.80;4.00;;;;;;;20.65;100.00;100611.60;105665;1253;64444;-43
2023/05/28 07:24:15;;;;;;;11.20;3.70;;;;;;;20.85;100.00;100614.35;105673;1258;72659;-43
2023/05/28 07:26:44;;;;;;;10.30;3.40;;;;;;;20.87;100.00;100635.40;105626;1256;59670;-43
2023/05/28 07:29:18;;;;;;;8.20;3.20;;;;;;;21.04;100.00;100642.81;105682;1254;59536;-43
2023/05/28 07:31:46;;;;;;;9.40;3.90;;;;;;;21.08;100.00;100653.63;105648;1253;71789;-43
2023/05/28 07:34:14;;;;;;;16.50;4.00;;;;;;;21.09;100.00;100664.81;105663;1253;65343;-43
2023/05/28 07:36:43;;;;;;;12.50;4.50;;;;;;;21.07;100.00;100670.56;105624;1259;71796;-42
2023/05/28 07:39:13;;;;;;;8.60;4.00;;;;;;;21.22;100.00;100677.56;105647;1253;60428;-43
2023/05/28 07:41:40;;;;;;;14.10;4.20;;;;;;;21.43;100.00;100661.02;105673;1254;60334;-43
2023/05/28 07:44:17;;;;;;;14.60;4.50;;;;;;;21.65;100.00;100657.47;105647;1253;72976;-43
2023/05/28 07:46:44;;;;;;;16.20;3.70;;;;;;;21.89;100.00;100659.67;105622;1253;63640;-44
2023/05/28 07:49:28;;;;;;;8.40;3.80;;;;;;;22.14;99.25;100653.15;105650;1259;72419;-42
2023/05/28 07:51:58;;;;;;;9.90;3.40;;;;;;;22.29;93.46;100657.48;105644;1257;60438;-43
2023/05/28 07:54:30;;;;;;;9.20;4.00;;;;;;;22.38;89.46;100659.18;105615;1259;60349;-43
2023/05/28 07:57:00;;;;;;;13.80;3.70;;;;;;;22.49;83.79;100654.62;105648;1254;73816;-42
2023/05/28 07:59:33;;;;;;;9.10;4.10;;;;;;;22.64;80.58;100655.79;105646;1261;64003;-43
2023/05/28 08:02:03;;;;;;;4.20;3.20;;;;;;;22.73;73.11;100630.98;105633;1258;72664;-43
2023/05/28 08:04:31;;;;;;;8.90;3.30;;;;;;;22.65;73.71;100657.97;105664;1256;60431;-46
2023/05/28 08:07:00;;;;;;;9.80;3.90;;;;;;;22.82;82.66;100689.23;105655;1259;60539;-45
2023/05/28 08:09:29;;;;;;;12.00;3.70;;;;;;;23.17;77.01;100659.63;105629;1254;72916;-42
2023/05/28 08:12:00;;;;;;;8.40;3.80;;;;;;;23.45;73.94;100644.89;105631;1254;64331;-43
2023/05/28 08:14:29;;;;;;;8.50;3.40;;;;;;;23.78;69.81;100617.59;105655;1254;72633;-44
2023/05/28 08:17:00;;;;;;;9.20;3.90;;;;;;;23.76;66.56;100607.52;105618;1254;60552;-43
2023/05/28 08:19:37;;;;;;;7.50;3.80;;;;;;;23.60;65.76;100623.45;105636;1254;60508;-44
2023/05/28 08:22:06;;;;;;;13.00;3.60;;;;;;;23.57;65.58;100633.20;105673;1254;72651;-43
2023/05/28 08:24:34;;;;;;;11.10;3.50;;;;;;;23.74;65.10;100630.93;105600;1254;65197;-44
2023/05/28 08:27:02;;;;;;;6.40;3.80;;;;;;;23.97;62.16;100580.48;105627;1257;72721;-45
2023/05/28 08:29:30;;;;;;;8.50;3.30;;;;;;;24.01;60.17;100555.67;105691;1259;60456;-44
2023/05/28 08:32:01;;;;;;;14.20;3.60;;;;;;;23.98;60.16;100583.01;105648;1259;61649;-43
2023/05/28 08:34:39;;;;;;;4.30;2.80;;;;;;;24.16;59.96;100595.54;105659;1254;72925;-44
2023/05/28 08:37:07;;;;;;;7.30;3.30;;;;;;;24.24;58.87;100577.96;105643;1254;63412;-43
2023/05/28 08:39:53;;;;;;;7.40;3.50;;;;;;;24.27;59.34;100604.04;105659;1254;72630;-44
2023/05/28 08:42:23;;;;;;;12.40;3.40;;;;;;;24.53;58.26;100573.23;105700;1255;61097;-45
2023/05/28 08:44:50;;;;;;;11.00;3.30;;;;;;;24.80;58.37;100584.81;105642;1259;61711;-44
2023/05/28 08:47:19;;;;;;;7.40;3.00;;;;;;;24.84;57.11;100553.95;105669;1254;72630;-44
2023/05/28 08:49:52;;;;;;;12.60;3.90;;;;;;;24.67;55.81;100525.92;105610;1254;66235;-44
2023/05/28 08:52:22;;;;;;;16.20;4.30;;;;;;;24.50;56.96;100581.39;105658;1257;71737;-44
2023/05/28 08:54:50;;;;;;;8.30;3.80;;;;;;;24.82;55.69;100534.73;105652;1257;60520;-44
2023/05/28 08:57:18;;;;;;;10.80;3.10;;;;;;;25.14;55.93;100543.36;105578;1254;60342;-44
2023/05/28 08:59:51;;;;;;;6.80;2.90;;;;;;;25.30;55.75;100544.44;105635;1253;72707;-44
2023/05/28 09:02:25;;;;;;;11.10;3.70;;;;;;;25.35;54.96;100521.24;105663;1259;65266;-44
2023/05/28 09:04:53;;;;;;;12.60;3.30;;;;;;;25.12;54.88;100539.27;105659;1254;72651;-42
2023/05/28 09:07:21;;;;;;;6.90;3.00;;;;;;;24.93;56.18;100602.86;105646;1257;60492;-43
2023/05/28 09:09:52;;;;;;;7.00;2.90;;;;;;;24.70;54.76;100550.05;105652;1254;60620;-43
2023/05/28 09:12:21;;;;;;;17.10;4.90;;;;;;;24.24;56.37;100629.64;105633;1262;72810;-44
2023/05/28 09:14:53;;;;;;;13.20;3.10;;;;;;;24.04;58.19;100682.72;105664;1259;64048;-43
2023/05/28 09:17:32;;;;;;;13.40;3.00;;;;;;;24.04;57.49;100641.98;105612;1257;72692;-44
2023/05/28 09:20:01;;;;;;;10.90;2.70;;;;;;;24.01;58.81;100681.71;105690;1254;60486;-44
2023/05/28 09:22:29;;;;;;;5.00;2.90;;;;;;;24.10;59.64;100692.86;105635;1254;60335;-44
2023/05/28 09:25:08;;;;;;;8.00;3.30;;;;;;;24.30;58.71;100647.58;105620;1258;72685;-44
2023/05/28 09:27:56;;;;;;;11.00;3.50;;;;;;;24.40;57.29;100606.47;105517;1259;65182;-44
2023/05/28 09:30:24;;;;;;;9.20;3.40;;;;;;;24.44;56.85;100600.18;105469;1260;72643;-46
2023/05/28 09:32:57;;;;;;;7.30;3.30;;;;;;;24.49;57.00;100614.79;105638;1257;60535;-46
2023/05/28 09:35:26;;;;;;;6.70;3.50;;;;;;;24.60;56.64;100604.94;105681;1254;60643;-42
2023/05/28 09:38:01;;;;;;;10.90;3.30;;;;;;;24.89;56.18;100590.10;105650;1259;73811;-43
2023/05/28 09:40:29;;;;;;;8.30;3.50;;;;;;;25.33;55.13;100545.92;105685;1254;65334;-45
2023/05/28 09:42:57;;;;;;;4.40;3.00;;;;;;;25.72;53.91;100487.35;105630;1259;72721;-43
2023/05/28 09:45:25;;;;;;;7.20;3.30;;;;;;;25.99;53.06;100469.22;105690;1257;60553;-44
2023/05/28 09:47:53;;;;;;;7.50;3.30;;;;;;;26.22;52.00;100425.14;105686;1254;60343;-43
2023/05/28 09:50:21;;;;;;;3.20;2.70;;;;;;;26.34;50.12;100330.67;105630;1254;72606;-43
2023/05/28 09:52:49;;;;;;;10.20;2.90;;;;;;;26.43;49.79;100324.44;105666;1260;65635;-44
2023/05/28 09:55:17;;;;;;;24.00;4.50;;;;;;;26.56;49.88;100358.70;105644;1258;71548;-42
2023/05/28 09:57:46;;;;;;;13.30;3.50;;;;;;;26.64;49.35;100316.27;105712;1254;60534;-44
2023/05/28 10:00:22;;;;;;;6.00;3.30;;;;;;;26.77;48.29;100257.98;105696;1259;60498;-44
2023/05/28 10:02:56;;;;;;;11.40;3.30;;;;;;;26.90;46.91;100153.60;105677;1259;73821;-44
2023/05/28 10:05:23;;;;;;;9.90;3.30;;;;;;;26.93;47.28;100220.06;105685;1258;64023;-43
2023/05/28 10:07:52;;;;;;;7.70;3.70;;;;;;;27.09;47.43;100236.66;105604;1257;72869;-43
2023/05/28 10:10:20;;;;;;;11.40;3.20;;;;;;;27.22;46.88;100197.77;105643;1253;60463;-43
2023/05/28 10:12:49;;;;;;;8.70;3.50;;;;;;;27.22;46.28;100158.42;105612;1259;60376;-43
2023/05/28 10:15:17;;;;;;;5.60;3.20;;;;;;;27.02;46.70;100219.06;105596;1261;71981;-44
2023/05/28 10:17:45;;;;;;;6.20;3.20;;;;;;;26.94;47.12;100281.23;105617;1254;63698;-44
2023/05/28 10:20:14;;;;;;;6.90;3.30;;;;;;;26.95;46.19;100183.05;105629;1257;71516;-44
2023/05/28 10:22:42;;;;;;;16.30;4.30;;;;;;;27.13;46.66;100240.73;105658;1259;60486;-44
2023/05/28 10:25:10;;;;;;;15.00;4.60;;;;;;;27.33;46.99;100256.07;105657;1254;60367;-44
2023/05/28 10:27:44;;;;;;;8.30;4.80;;;;;;;27.47;46.25;100187.02;105652;1254;72695;-44
2023/05/28 10:30:12;;;;;;;10.00;4.30;;;;;;;27.32;45.57;100137.84;105684;1259;65214;-44
2023/05/28 10:32:41;;;;;;;8.60;3.60;;;;;;;27.01;45.84;100213.52;105630;1259;72631;-44
2023/05/28 10:35:10;;;;;;;5.90;3.30;;;;;;;26.92;45.97;100222.13;105640;1259;60540;-44
2023/05/28 10:37:38;;;;;;;11.20;4.80;;;;;;;26.88;46.76;100293.61;105673;1260;60403;-44
2023/05/28 10:40:10;;;;;;;10.60;4.20;;;;;;;26.99;46.13;100229.84;105612;1259;71883;-45
2023/05/28 10:42:40;;;;;;;10.10;3.70;;;;;;;26.97;46.14;100241.85;105580;1254;65151;-45
2023/05/28 10:45:11;;;;;;;12.20;3.40;;;;;;;27.10;45.95;100239.06;105685;1254;71013;-44
2023/05/28 10:47:40;;;;;;;6.70;3.50;;;;;;;27.37;46.19;100247.77;105715;1259;60515;-44
2023/05/28 10:50:08;;;;;;;7.40;3.30;;;;;;;27.71;44.40;100054.11;105677;1259;60438;-44
2023/05/28 10:53:07;;;;;;;6.00;3.70;;;;;;;27.83;43.42;99935.34;105629;1254;72577;-44
2023/05/28 10:55:51;;;;;;;17.00;6.60;;;;;;;27.70;43.29;99932.88;105671;1259;64038;-43
2023/05/28 10:58:27;;;;;;;11.70;4.90;;;;;;;27.54;43.91;100030.79;105652;1254;71572;-44
2023/05/28 11:01:05;;;;;;;12.60;7.70;;;;;;;27.50;42.98;99927.92;105684;1254;60450;-44
2023/05/28 11:03:44;;;;;;;6.00;5.10;;;;;;;27.13;43.62;100002.81;105792;1259;60377;-44
2023/05/28 11:06:12;;;;;;;9.50;4.90;;;;;;;27.08;43.72;100050.20;105665;1254;73781;-44
2023/05/28 11:08:49;;;;;;;8.40;3.20;;;;;;;27.03;43.56;100028.75;105644;1259;64418;-44
2023/05/28 11:11:18;;;;;;;8.60;3.60;;;;;;;26.95;43.62;100065.73;105693;1254;72674;-44
2023/05/28 11:13:46;;;;;;;17.00;4.80;;;;;;;27.03;43.92;100080.23;105610;1260;60539;-44
2023/05/28 11:16:18;;;;;;;8.90;4.20;;;;;;;27.14;44.30;100132.27;105692;1259;60476;-44
2023/05/28 11:19:03;;;;;;;8.40;3.20;;;;;;;27.38;43.05;100000.55;105653;1260;72344;-44
2023/05/28 11:21:33;;;;;;;5.40;3.20;;;;;;;27.37;41.25;99804.26;105655;1259;65251;-44
2023/05/28 11:24:04;;;;;;;10.90;4.30;;;;;;;27.30;42.58;99925.09;105627;1257;71467;-44